Surf City, New Jersey
Current Conditions -  °F | °C
As of 10:55 PM on Saturday 24 Jan 2015 (Local Time) from KMJX Reporting Station
Clear Clear  
Wind Chill: 34°   Ceiling: Unl
Heat Index: 34°   Visibility: 10mi
Dew Point: 28°   Wind: 3mph
Humidity: 81%   Direction: 260°W
Pressure: 29.52"   Gusts: NA
Location:  39.623°N, 74.1974°W
Report Text: KMJX 250355Z AUTO 26003KT 10SM CLR 01/M02 A2952 RMK AO1
Loading
Personal Weather Stations






























Interactive Weather Map New forecast layout! Learn more

10-Day Weather Forecast

Advertisements
Track Severe Weather on mobile